Time;durP1;ratioP1;P1;durP2;ratioP2;P2;SDS_P1;SDS_P2;PMS_P1;PMS_P2;Temp;Humidity;BMP_temperature;BMP_pressure;BME280_temperature;BME280_humidity;BME280_pressure;Samples;Min_cycle;Max_cycle;Signal;HPM_P1;HPM_P2
2023/11/13 04:00:41;;;;;;;3.22;1.77;;;9.60;99.90;;;;;;5985043;23;20091;-76
2023/11/13 04:03:06;;;;;;;5.05;1.70;;;9.60;99.90;;;;;;4973628;28;20065;-76
2023/11/13 04:05:32;;;;;;;1.88;1.48;;;9.60;99.90;;;;;;4976031;28;20061;-77
2023/11/13 04:07:58;;;;;;;4.72;1.73;;;9.60;99.90;;;;;;4979849;28;20033;-76
2023/11/13 04:10:24;;;;;;;2.95;1.83;;;9.60;99.90;;;;;;4979838;28;20044;-77
2023/11/13 04:12:50;;;;;;;3.55;1.33;;;9.60;99.90;;;;;;4994592;28;20018;-76
2023/11/13 04:15:16;;;;;;;4.28;1.33;;;9.60;99.90;;;;;;4992167;28;20022;-76
2023/11/13 04:17:42;;;;;;;5.00;1.15;;;9.60;99.90;;;;;;4989172;28;20369;-76
2023/11/13 04:20:12;;;;;;;7.38;1.33;;;9.60;99.90;;;;;;4992323;28;20043;-77
2023/11/13 04:22:41;;;;;;;2.47;1.63;;;9.60;99.90;;;;;;4996215;28;20372;-77
2023/11/13 04:25:07;;;;;;;4.05;1.48;;;9.60;99.90;;;;;;4996441;28;20097;-78
2023/11/13 04:27:33;;;;;;;4.28;1.40;;;9.60;99.90;;;;;;4989199;28;20022;-76
2023/11/13 04:29:59;;;;;;;4.70;1.60;;;9.60;99.90;;;;;;4998649;28;20113;-77
2023/11/13 04:32:25;;;;;;;5.30;1.15;;;9.60;99.90;;;;;;4988081;28;20023;-76
2023/11/13 04:34:50;;;;;;;2.78;1.45;;;9.60;99.90;;;;;;4994023;28;20068;-76
2023/11/13 04:37:17;;;;;;;12.07;1.92;;;9.60;99.90;;;;;;4991014;28;20029;-77
2023/11/13 04:39:43;;;;;;;10.00;1.48;;;9.60;99.90;;;;;;4984283;28;20045;-75
2023/11/13 04:42:08;;;;;;;1.25;1.15;;;9.60;99.90;;;;;;4997479;28;20022;-76
2023/11/13 04:44:34;;;;;;;2.83;1.38;;;9.60;99.90;;;;;;4992598;28;20072;-76
2023/11/13 04:46:59;;;;;;;8.70;2.05;;;9.60;99.90;;;;;;4997822;28;20072;-76
2023/11/13 04:49:25;;;;;;;6.10;1.50;;;9.60;99.90;;;;;;4990717;28;20087;-77
2023/11/13 04:51:50;;;;;;;5.28;1.50;;;9.60;99.90;;;;;;4991585;28;20031;-76
2023/11/13 04:54:17;;;;;;;3.33;1.30;;;9.60;99.90;;;;;;4994580;28;20029;-76
2023/11/13 04:56:42;;;;;;;5.88;1.60;;;9.60;99.90;;;;;;4996559;28;20027;-77
2023/11/13 04:59:09;;;;;;;5.90;1.73;;;9.60;99.90;;;;;;4999994;28;20025;-76
2023/11/13 05:01:39;;;;;;;11.43;1.90;;;9.70;99.90;;;;;;4990315;28;20406;-76
2023/11/13 05:04:06;;;;;;;4.30;1.88;;;9.60;99.90;;;;;;4996783;28;20076;-76
2023/11/13 05:06:31;;;;;;;7.55;1.80;;;9.70;99.90;;;;;;4994162;28;20054;-77
2023/11/13 05:08:57;;;;;;;6.28;1.70;;;9.70;99.90;;;;;;5001374;28;20278;-76
2023/11/13 05:11:23;;;;;;;7.28;1.15;;;9.70;99.90;;;;;;4994931;28;20068;-77
2023/11/13 05:13:50;;;;;;;9.02;1.70;;;9.70;99.90;;;;;;4986527;28;20053;-76
2023/11/13 05:16:25;;;;;;;5.65;1.45;;;9.70;99.90;;;;;;4999578;28;20501;-76
2023/11/13 05:18:54;;;;;;;9.70;1.90;;;9.70;99.90;;;;;;4991009;28;20037;-77
2023/11/13 05:21:20;;;;;;;7.85;1.42;;;9.70;99.90;;;;;;4999686;28;20029;-76
2023/11/13 05:23:47;;;;;;;8.80;2.00;;;9.70;99.90;;;;;;4995088;28;20050;-76
2023/11/13 05:26:19;;;;;;;5.60;1.35;;;9.70;99.90;;;;;;5002376;28;20022;-77
2023/11/13 05:28:44;;;;;;;6.00;1.73;;;9.70;99.90;;;;;;4993877;28;20019;-77
2023/11/13 05:31:10;;;;;;;4.35;1.80;;;9.70;99.90;;;;;;4999056;28;20026;-76
2023/11/13 05:33:35;;;;;;;4.70;1.33;;;9.70;99.90;;;;;;4996292;28;20422;-77
2023/11/13 05:36:01;;;;;;;7.32;2.05;;;9.70;99.90;;;;;;4990405;28;20050;-76
2023/11/13 05:38:27;;;;;;;7.43;1.70;;;9.70;99.90;;;;;;4993912;28;20022;-76
2023/11/13 05:40:52;;;;;;;9.00;2.70;;;9.70;99.90;;;;;;4995903;28;20022;-76
2023/11/13 05:43:18;;;;;;;5.53;1.75;;;9.70;99.90;;;;;;5002492;28;20014;-76
2023/11/13 05:45:44;;;;;;;6.20;1.83;;;9.70;99.90;;;;;;4995490;28;20091;-76
2023/11/13 05:48:10;;;;;;;5.20;1.73;;;9.70;99.90;;;;;;4993272;28;20670;-77
2023/11/13 05:50:35;;;;;;;7.72;1.45;;;9.70;99.90;;;;;;4993417;28;20053;-77
2023/11/13 05:53:01;;;;;;;5.30;1.25;;;9.70;99.90;;;;;;4999670;28;20108;-76
2023/11/13 05:55:26;;;;;;;6.57;2.13;;;9.70;99.90;;;;;;4995863;28;20038;-77
2023/11/13 05:57:52;;;;;;;5.45;1.70;;;9.70;99.90;;;;;;4994513;28;20030;-77
2023/11/13 06:00:20;;;;;;;7.72;1.60;;;9.70;99.90;;;;;;4989186;28;20104;-76
2023/11/13 06:02:46;;;;;;;11.63;2.17;;;9.70;99.90;;;;;;4995536;28;20060;-76
2023/11/13 06:05:12;;;;;;;4.93;1.48;;;9.70;99.90;;;;;;4997887;28;20026;-75
2023/11/13 06:07:38;;;;;;;3.55;1.30;;;9.70;99.90;;;;;;4996554;28;20022;-76
2023/11/13 06:10:06;;;;;;;11.30;1.83;;;9.70;99.90;;;;;;4993432;28;20609;-77
2023/11/13 06:12:33;;;;;;;7.70;1.63;;;9.70;99.90;;;;;;4996411;28;20474;-77
2023/11/13 06:14:59;;;;;;;13.40;1.80;;;9.70;99.90;;;;;;4996976;28;20034;-76
2023/11/13 06:17:25;;;;;;;1.92;1.40;;;9.70;99.90;;;;;;4996938;28;20391;-77
2023/11/13 06:19:51;;;;;;;8.38;1.70;;;9.70;99.90;;;;;;4996278;28;20031;-77
2023/11/13 06:22:17;;;;;;;4.35;1.95;;;9.70;99.90;;;;;;4997408;28;20029;-77
2023/11/13 06:24:43;;;;;;;6.70;1.85;;;9.70;99.90;;;;;;4990610;28;20691;-77
2023/11/13 06:27:09;;;;;;;9.95;1.58;;;9.70;99.90;;;;;;4998347;28;20026;-77
2023/11/13 06:29:35;;;;;;;11.63;1.80;;;9.70;99.90;;;;;;4995860;28;20038;-77
2023/11/13 06:32:01;;;;;;;12.15;1.95;;;9.70;99.90;;;;;;4993702;28;20117;-77
2023/11/13 06:34:28;;;;;;;5.63;1.80;;;9.70;99.90;;;;;;4996459;28;20106;-77
2023/11/13 06:36:54;;;;;;;6.38;1.85;;;9.70;99.90;;;;;;4992207;28;20023;-76
2023/11/13 06:39:20;;;;;;;6.65;1.92;;;9.70;99.90;;;;;;4997629;28;20029;-77
2023/11/13 06:41:45;;;;;;;11.27;1.80;;;9.70;99.90;;;;;;4998936;28;20029;-77
2023/11/13 06:44:11;;;;;;;6.15;1.55;;;9.70;99.90;;;;;;4993673;28;20022;-77
2023/11/13 06:46:37;;;;;;;11.93;1.95;;;9.70;99.90;;;;;;4992604;28;20026;-78
2023/11/13 06:49:04;;;;;;;8.32;1.98;;;9.70;99.90;;;;;;4985693;28;20675;-76
2023/11/13 06:51:30;;;;;;;8.32;1.80;;;9.80;99.90;;;;;;4995585;28;20472;-77
2023/11/13 06:53:56;;;;;;;5.13;1.40;;;9.70;99.90;;;;;;4993369;28;20030;-77
2023/11/13 06:56:22;;;;;;;9.63;1.85;;;9.70;99.90;;;;;;4993171;28;20026;-76
2023/11/13 06:58:49;;;;;;;5.47;1.90;;;9.80;99.90;;;;;;4989872;28;20022;-75
2023/11/13 07:01:15;;;;;;;3.80;1.58;;;9.70;99.90;;;;;;4994406;28;20022;-78
2023/11/13 07:03:40;;;;;;;5.97;1.27;;;9.80;99.90;;;;;;4995881;28;20027;-78
2023/11/13 07:06:07;;;;;;;6.88;1.85;;;9.70;99.90;;;;;;4993533;28;20019;-77
2023/11/13 07:08:33;;;;;;;5.07;1.92;;;9.80;99.90;;;;;;4996460;28;20273;-77
2023/11/13 07:10:59;;;;;;;5.78;1.55;;;9.70;99.90;;;;;;4991141;28;20022;-76
2023/11/13 07:13:25;;;;;;;5.00;1.50;;;9.80;99.90;;;;;;4999592;28;20014;-77
2023/11/13 07:15:50;;;;;;;5.68;1.92;;;9.80;99.90;;;;;;5000469;28;20019;-76
2023/11/13 07:18:16;;;;;;;5.03;1.67;;;9.80;99.90;;;;;;4998139;28;20018;-77
2023/11/13 07:20:42;;;;;;;3.63;1.52;;;9.80;99.90;;;;;;4996867;28;20065;-77
2023/11/13 07:23:09;;;;;;;6.50;1.52;;;9.80;99.90;;;;;;4993842;28;20492;-76
2023/11/13 07:25:35;;;;;;;4.45;1.58;;;9.80;99.90;;;;;;4993625;28;20022;-77
2023/11/13 07:28:00;;;;;;;5.07;1.50;;;9.80;99.90;;;;;;4991273;28;20554;-77
2023/11/13 07:30:27;;;;;;;9.18;2.05;;;9.80;99.90;;;;;;4988560;28;20026;-76
2023/11/13 07:32:53;;;;;;;4.95;1.73;;;9.80;99.90;;;;;;4990314;28;20081;-77
2023/11/13 07:35:19;;;;;;;6.20;1.55;;;9.80;99.90;;;;;;4997017;28;20038;-77
2023/11/13 07:37:44;;;;;;;11.32;1.58;;;9.80;99.90;;;;;;4995061;28;20026;-77
2023/11/13 07:40:13;;;;;;;6.95;1.58;;;9.80;99.90;;;;;;4990808;28;20450;-77
2023/11/13 07:42:40;;;;;;;3.17;1.73;;;9.80;99.90;;;;;;4980049;28;20479;-76
2023/11/13 07:45:08;;;;;;;3.05;1.10;;;9.80;99.90;;;;;;4975002;28;20015;-77
2023/11/13 07:47:34;;;;;;;3.55;1.90;;;9.80;99.90;;;;;;4984233;28;20034;-76
2023/11/13 07:50:00;;;;;;;5.60;1.67;;;9.80;99.90;;;;;;4985370;28;20025;-76
2023/11/13 07:52:28;;;;;;;4.70;1.40;;;9.80;99.90;;;;;;4976012;28;20014;-77
2023/11/13 07:54:58;;;;;;;3.45;1.40;;;9.80;99.90;;;;;;4986071;28;20026;-77
2023/11/13 07:57:24;;;;;;;6.70;1.60;;;9.80;99.90;;;;;;4985380;28;20023;-77
2023/11/13 07:59:50;;;;;;;4.78;1.63;;;9.80;99.90;;;;;;4982649;28;20041;-77
2023/11/13 08:02:19;;;;;;;3.65;1.40;;;9.80;99.90;;;;;;4989155;28;20042;-76
2023/11/13 08:04:45;;;;;;;5.32;1.70;;;9.80;99.90;;;;;;4980131;28;20043;-77
2023/11/13 08:07:10;;;;;;;1.75;1.35;;;9.80;99.90;;;;;;4983343;28;20058;-77
2023/11/13 08:09:36;;;;;;;4.95;1.35;;;9.80;99.90;;;;;;4988631;28;20034;-76
2023/11/13 08:12:02;;;;;;;2.45;1.25;;;9.80;99.90;;;;;;4978997;28;20543;-76
2023/11/13 08:14:28;;;;;;;6.15;1.60;;;9.80;99.90;;;;;;4986177;28;20023;-78
2023/11/13 08:16:54;;;;;;;5.75;1.80;;;9.80;99.90;;;;;;4982063;28;20018;-77
2023/11/13 08:19:20;;;;;;;2.67;1.25;;;9.80;99.90;;;;;;4984357;28;20053;-76
2023/11/13 08:21:46;;;;;;;6.28;2.13;;;9.80;99.90;;;;;;4990003;28;20030;-76
2023/11/13 08:24:12;;;;;;;4.50;2.15;;;9.80;99.90;;;;;;4991725;28;20021;-76
2023/11/13 08:26:38;;;;;;;5.50;1.42;;;9.80;99.90;;;;;;4981799;28;20019;-78
2023/11/13 08:29:03;;;;;;;2.08;1.42;;;9.80;99.90;;;;;;4986147;28;20027;-79
2023/11/13 08:31:29;;;;;;;4.50;2.22;;;9.80;99.90;;;;;;4980296;28;20062;-79
2023/11/13 08:33:55;;;;;;;4.55;1.80;;;9.80;99.90;;;;;;4980561;28;20027;-79
2023/11/13 08:36:24;;;;;;;2.25;1.63;;;9.90;99.90;;;;;;4987548;28;20034;-79
2023/11/13 08:38:53;;;;;;;4.25;1.42;;;9.80;99.90;;;;;;4983737;28;20121;-78
2023/11/13 08:41:19;;;;;;;3.72;1.42;;;9.80;99.90;;;;;;4982350;28;20034;-79
2023/11/13 08:43:45;;;;;;;1.48;1.27;;;9.90;99.90;;;;;;4984662;28;20045;-78
2023/11/13 08:46:14;;;;;;;2.47;1.45;;;9.80;99.90;;;;;;4981521;28;20028;-79
2023/11/13 08:48:39;;;;;;;3.30;1.70;;;9.90;99.90;;;;;;4994140;28;20026;-79
2023/11/13 08:51:07;;;;;;;3.38;1.38;;;9.90;99.90;;;;;;4984099;28;20478;-78
2023/11/13 08:53:40;;;;;;;4.05;1.38;;;9.80;99.90;;;;;;4987639;28;20520;-79
2023/11/13 08:56:15;;;;;;;2.80;1.50;;;9.90;99.90;;;;;;4984361;28;20088;-78
2023/11/13 08:58:43;;;;;;;5.55;1.77;;;9.80;99.90;;;;;;4993432;28;20679;-76
2023/11/13 09:01:09;;;;;;;1.60;1.13;;;9.90;99.90;;;;;;4982603;28;20034;-76
2023/11/13 09:03:35;;;;;;;2.13;1.50;;;9.90;99.90;;;;;;4977219;28;20026;-77
2023/11/13 09:06:08;;;;;;;3.55;1.58;;;9.80;99.90;;;;;;4983469;28;20454;-75
2023/11/13 09:08:36;;;;;;;4.22;1.42;;;9.80;99.90;;;;;;4979056;28;20034;-76
2023/11/13 09:11:04;;;;;;;5.10;1.40;;;9.90;99.90;;;;;;4989010;28;20026;-77
2023/11/13 09:13:29;;;;;;;3.38;1.35;;;9.90;99.90;;;;;;4984954;28;20638;-76
2023/11/13 09:15:55;;;;;;;6.07;1.35;;;9.90;99.90;;;;;;4987490;28;20022;-77
2023/11/13 09:18:26;;;;;;;4.18;1.55;;;9.90;99.90;;;;;;4990857;28;20459;-76
2023/11/13 09:20:54;;;;;;;4.07;1.50;;;9.90;99.90;;;;;;4989997;28;20031;-77
2023/11/13 09:23:23;;;;;;;5.55;1.40;;;9.90;99.90;;;;;;4979309;28;20077;-77
2023/11/13 09:25:48;;;;;;;2.63;1.20;;;9.90;99.90;;;;;;4986370;28;20022;-77
2023/11/13 09:28:16;;;;;;;3.67;1.33;;;9.90;99.90;;;;;;4984646;28;20038;-77
2023/11/13 09:30:41;;;;;;;2.75;1.13;;;9.90;99.90;;;;;;4992304;28;20073;-76
2023/11/13 09:33:10;;;;;;;6.30;1.95;;;9.90;99.90;;;;;;4986365;28;20054;-77
2023/11/13 09:35:36;;;;;;;1.10;1.00;;;9.90;99.90;;;;;;4979402;28;20025;-76
2023/11/13 09:38:03;;;;;;;1.95;1.20;;;9.90;99.90;;;;;;4992632;28;20030;-76
2023/11/13 09:40:31;;;;;;;2.33;1.00;;;9.90;99.90;;;;;;4988222;28;20026;-77
2023/11/13 09:43:07;;;;;;;4.25;1.48;;;9.90;99.90;;;;;;4989695;28;20022;-76
2023/11/13 09:45:34;;;;;;;3.08;1.00;;;9.90;99.90;;;;;;4995664;28;20022;-76
2023/11/13 09:48:05;;;;;;;2.15;1.00;;;9.90;99.90;;;;;;4988298;28;20042;-76
2023/11/13 09:50:31;;;;;;;1.75;0.98;;;10.00;99.90;;;;;;4977813;28;20786;-77
2023/11/13 09:52:59;;;;;;;1.15;1.02;;;10.00;99.90;;;;;;4991960;28;20026;-77
2023/11/13 09:55:26;;;;;;;1.83;1.13;;;10.00;99.90;;;;;;4990524;28;20053;-77
2023/11/13 09:57:52;;;;;;;1.83;0.82;;;9.90;99.90;;;;;;4993915;28;20027;-77
2023/11/13 10:00:19;;;;;;;1.48;1.10;;;9.90;99.90;;;;;;4990638;28;20040;-77
2023/11/13 10:02:46;;;;;;;3.05;1.33;;;9.90;99.90;;;;;;4995433;28;20030;-77
2023/11/13 10:05:16;;;;;;;2.35;1.25;;;10.00;99.90;;;;;;4993739;28;20026;-77
2023/11/13 10:07:48;;;;;;;1.35;1.10;;;9.90;99.90;;;;;;4996077;28;20026;-75
2023/11/13 10:10:20;;;;;;;2.42;1.50;;;10.00;99.90;;;;;;4987737;28;20454;-77
2023/11/13 10:12:46;;;;;;;1.30;0.90;;;10.00;99.90;;;;;;4990014;28;20077;-76
2023/11/13 10:15:15;;;;;;;1.20;1.10;;;10.00;99.90;;;;;;4989155;28;20030;-77
2023/11/13 10:17:41;;;;;;;4.95;1.27;;;10.00;99.90;;;;;;4994144;28;20026;-76
2023/11/13 10:20:08;;;;;;;4.25;1.50;;;10.00;99.90;;;;;;4995015;28;20097;-77
2023/11/13 10:22:33;;;;;;;3.65;1.58;;;10.00;99.90;;;;;;4993956;28;20030;-77
2023/11/13 10:24:59;;;;;;;1.50;1.35;;;10.00;99.90;;;;;;4996298;28;20145;-77
2023/11/13 10:27:24;;;;;;;2.83;1.23;;;10.00;99.90;;;;;;4998270;28;20031;-76
2023/11/13 10:30:04;;;;;;;1.70;1.10;;;10.00;99.90;;;;;;4999653;28;20505;-77
2023/11/13 10:32:30;;;;;;;5.35;1.30;;;10.00;99.90;;;;;;4992468;28;20402;-77
2023/11/13 10:34:56;;;;;;;2.20;0.93;;;10.00;99.90;;;;;;4997467;28;20040;-77
2023/11/13 10:37:23;;;;;;;1.77;1.10;;;10.00;99.90;;;;;;4997208;28;20026;-77
2023/11/13 10:39:49;;;;;;;1.90;1.10;;;10.00;99.90;;;;;;4994992;28;20029;-74
2023/11/13 10:42:23;;;;;;;1.33;1.08;;;10.10;99.90;;;;;;4997006;28;20022;-76
2023/11/13 10:44:54;;;;;;;1.75;1.05;;;10.00;99.90;;;;;;4994225;28;20026;-76
2023/11/13 10:47:23;;;;;;;0.93;0.90;;;10.00;99.90;;;;;;4997675;28;20061;-76
2023/11/13 10:49:50;;;;;;;1.35;1.15;;;10.00;99.90;;;;;;4998503;28;20105;-76
2023/11/13 10:52:17;;;;;;;2.13;0.98;;;10.10;99.90;;;;;;4993489;28;20083;-76
2023/11/13 10:54:48;;;;;;;1.58;0.90;;;10.00;99.90;;;;;;4986491;28;20144;-75
2023/11/13 10:57:16;;;;;;;1.27;1.05;;;10.10;99.90;;;;;;4982143;28;20391;-75
2023/11/13 10:59:41;;;;;;;2.63;1.17;;;10.10;99.90;;;;;;4992621;28;20115;-76
2023/11/13 11:02:25;;;;;;;3.47;0.63;;;10.10;99.90;;;;;;4977838;28;20503;-75
2023/11/13 11:04:54;;;;;;;1.88;0.80;;;10.10;99.90;;;;;;4992327;28;20105;-76
2023/11/13 11:07:27;;;;;;;1.10;0.93;;;10.10;99.90;;;;;;4994509;28;20454;-76
2023/11/13 11:09:57;;;;;;;4.18;1.58;;;10.10;99.90;;;;;;4990446;28;20514;-78
2023/11/13 11:12:31;;;;;;;1.10;1.00;;;10.10;99.90;;;;;;4987172;28;20085;-76
2023/11/13 11:15:15;;;;;;;1.58;0.80;;;10.10;99.90;;;;;;4983044;28;20056;-76
2023/11/13 11:17:47;;;;;;;1.05;0.98;;;10.10;99.90;;;;;;4986949;28;20134;-76
2023/11/13 11:20:24;;;;;;;3.80;1.20;;;10.10;99.90;;;;;;4975338;28;20023;-77
2023/11/13 11:22:57;;;;;;;2.05;0.95;;;11.50;99.90;;;;;;4983014;28;20133;-77
2023/11/13 11:25:34;;;;;;;3.40;0.90;;;10.90;99.90;;;;;;4984169;28;20499;-78
2023/11/13 11:28:02;;;;;;;1.30;1.00;;;10.50;99.90;;;;;;4983426;28;20034;-77
2023/11/13 11:30:32;;;;;;;1.67;1.10;;;10.40;99.90;;;;;;4987434;28;20018;-78
2023/11/13 11:32:59;;;;;;;;;;;10.30;99.90;;;;;;4987449;28;20062;-78
2023/11/13 11:35:32;;;;;;;1.55;0.90;;;10.20;99.90;;;;;;4990634;28;19961;-79
2023/11/13 11:38:18;;;;;;;2.78;1.13;;;10.20;99.90;;;;;;4987195;28;20018;-80
2023/11/13 11:40:48;;;;;;;5.53;1.17;;;10.20;99.90;;;;;;4992327;28;20021;-78
2023/11/13 11:43:23;;;;;;;4.13;1.27;;;10.10;99.90;;;;;;4986597;28;20019;-78
2023/11/13 11:45:54;;;;;;;2.92;1.10;;;10.20;99.90;;;;;;4981112;28;20025;-79
2023/11/13 11:48:23;;;;;;;7.05;1.20;;;10.20;99.90;;;;;;4993256;28;20076;-78
2023/11/13 11:51:21;;;;;;;2.72;1.30;;;10.10;99.90;;;;;;4991809;28;20030;-78
2023/11/13 11:53:57;;;;;;;3.45;1.25;;;10.10;99.90;;;;;;4991763;28;20058;-79
2023/11/13 11:56:23;;;;;;;4.45;1.60;;;10.10;99.90;;;;;;4997614;28;20426;-78
2023/11/13 11:58:49;;;;;;;3.35;1.30;;;10.10;99.90;;;;;;4987751;28;20044;-78
2023/11/13 12:01:16;;;;;;;4.15;1.30;;;10.10;99.90;;;;;;4986950;28;20105;-78
2023/11/13 12:03:42;;;;;;;2.60;1.45;;;10.10;99.90;;;;;;4994664;28;20172;-77
2023/11/13 12:06:08;;;;;;;1.60;1.10;;;10.10;99.90;;;;;;4996413;28;20035;-78
2023/11/13 12:08:35;;;;;;;5.07;1.35;;;10.10;99.90;;;;;;5000715;28;20038;-78
2023/11/13 12:11:02;;;;;;;1.60;1.00;;;10.10;99.90;;;;;;4988360;28;20050;-78
2023/11/13 12:13:28;;;;;;;2.22;1.40;;;10.20;99.90;;;;;;4983880;28;20026;-78
2023/11/13 12:15:57;;;;;;;2.22;1.15;;;10.10;99.90;;;;;;4998447;28;20661;-78
2023/11/13 12:18:22;;;;;;;2.55;1.20;;;10.20;99.90;;;;;;4992229;28;20031;-78
2023/11/13 12:20:48;;;;;;;2.15;1.10;;;10.20;99.90;;;;;;4982516;28;20416;-79
2023/11/13 12:23:15;;;;;;;3.00;1.23;;;10.20;99.90;;;;;;4992585;28;20109;-78
2023/11/13 12:25:41;;;;;;;2.38;1.27;;;10.20;99.90;;;;;;4996755;28;20015;-77
2023/11/13 12:28:08;;;;;;;2.65;1.50;;;10.20;99.90;;;;;;4990359;28;20014;-78
2023/11/13 12:30:34;;;;;;;6.72;1.55;;;10.20;99.90;;;;;;4990260;28;20050;-78
2023/11/13 12:33:00;;;;;;;2.47;2.00;;;10.20;99.90;;;;;;4976760;28;20166;-79
2023/11/13 12:35:26;;;;;;;3.22;1.50;;;10.20;99.90;;;;;;4987538;28;20019;-78
2023/11/13 12:37:52;;;;;;;4.20;1.58;;;10.20;99.90;;;;;;4986738;28;20089;-77
2023/11/13 12:40:19;;;;;;;2.92;1.30;;;10.20;99.90;;;;;;4991189;28;20033;-77
2023/11/13 12:42:45;;;;;;;2.78;1.50;;;10.20;99.90;;;;;;4990817;28;20475;-77
2023/11/13 12:45:12;;;;;;;1.30;1.20;;;10.20;99.90;;;;;;4987014;28;20062;-78
2023/11/13 12:47:43;;;;;;;2.22;1.48;;;10.20;99.90;;;;;;4988839;28;20037;-78
2023/11/13 12:50:12;;;;;;;2.13;1.50;;;10.20;99.90;;;;;;4985871;28;20037;-78
2023/11/13 12:52:38;;;;;;;2.90;1.42;;;10.20;99.90;;;;;;5007678;28;20502;-78
2023/11/13 12:55:11;;;;;;;1.65;1.40;;;10.20;99.90;;;;;;5002936;28;20041;-78
2023/11/13 12:57:38;;;;;;;2.70;1.30;;;10.20;99.90;;;;;;4989911;28;20164;-79
2023/11/13 13:00:15;;;;;;;3.95;1.35;;;10.20;99.90;;;;;;5013757;28;20053;-78
2023/11/13 13:02:46;;;;;;;1.70;1.35;;;10.20;99.90;;;;;;4994562;28;20161;-78
2023/11/13 13:05:18;;;;;;;3.90;1.50;;;10.20;99.90;;;;;;4980145;28;20023;-78
2023/11/13 13:07:44;;;;;;;2.22;1.20;;;10.20;99.90;;;;;;5000964;28;20025;-78
2023/11/13 13:10:13;;;;;;;1.20;1.10;;;10.20;99.90;;;;;;5016230;28;20026;-78
2023/11/13 13:12:42;;;;;;;1.35;1.23;;;10.20;99.90;;;;;;5000992;28;20028;-78
2023/11/13 13:15:17;;;;;;;3.10;1.70;;;10.20;99.90;;;;;;5007270;28;20394;-78
2023/11/13 13:17:44;;;;;;;5.30;1.55;;;10.20;99.90;;;;;;4992029;28;20482;-78
2023/11/13 13:20:18;;;;;;;2.00;1.63;;;10.20;99.90;;;;;;4988923;28;20429;-79
2023/11/13 13:22:45;;;;;;;4.30;1.77;;;10.20;99.90;;;;;;4988058;28;20536;-78
2023/11/13 13:25:11;;;;;;;3.75;2.00;;;10.30;99.90;;;;;;4983935;28;20039;-78
2023/11/13 13:27:38;;;;;;;3.97;1.40;;;10.20;99.90;;;;;;4984095;28;21457;-78
2023/11/13 13:30:05;;;;;;;1.67;1.45;;;10.20;99.90;;;;;;4982055;28;20030;-78
2023/11/13 13:32:31;;;;;;;5.57;1.60;;;10.20;99.90;;;;;;4974554;28;20074;-78
2023/11/13 13:34:57;;;;;;;3.08;1.80;;;10.30;99.90;;;;;;4988924;28;20026;-78
2023/11/13 13:37:23;;;;;;;6.05;2.08;;;10.30;99.90;;;;;;4982064;28;20036;-78
2023/11/13 13:39:52;;;;;;;2.00;1.60;;;10.30;99.90;;;;;;4983612;28;20029;-78
2023/11/13 13:42:19;;;;;;;3.70;1.67;;;10.30;99.90;;;;;;4981951;28;20522;-79
2023/11/13 13:44:44;;;;;;;3.10;1.80;;;10.30;99.90;;;;;;4985070;28;20117;-78
2023/11/13 13:47:10;;;;;;;7.65;1.52;;;10.30;99.90;;;;;;4989625;28;20058;-78
2023/11/13 13:49:35;;;;;;;5.68;1.65;;;10.30;99.90;;;;;;4996690;28;20498;-78
2023/11/13 13:52:03;;;;;;;5.47;1.73;;;10.30;99.90;;;;;;4982837;28;20033;-78
2023/11/13 13:54:30;;;;;;;3.22;1.67;;;10.30;99.90;;;;;;4983943;28;20388;-78
2023/11/13 13:56:57;;;;;;;7.40;2.13;;;10.30;99.90;;;;;;4991569;28;20018;-78
2023/11/13 13:59:24;;;;;;;3.47;1.48;;;10.30;99.90;;;;;;4990549;28;20105;-79
2023/11/13 14:01:51;;;;;;;3.90;2.03;;;10.30;99.90;;;;;;4993713;28;20551;-77
2023/11/13 14:04:16;;;;;;;7.05;2.42;;;10.30;99.90;;;;;;4986927;28;20057;-78
2023/11/13 14:06:42;;;;;;;3.42;2.03;;;10.30;99.90;;;;;;4979761;28;20060;-78
2023/11/13 14:09:14;;;;;;;3.88;2.17;;;10.30;99.90;;;;;;4979047;28;20018;-78
2023/11/13 14:11:40;;;;;;;7.43;1.95;;;10.30;99.90;;;;;;4991682;28;20523;-78
2023/11/13 14:14:07;;;;;;;5.90;2.20;;;10.30;99.90;;;;;;4988697;28;20018;-78
2023/11/13 14:16:33;;;;;;;3.88;1.60;;;10.30;99.90;;;;;;4978166;28;20402;-78
2023/11/13 14:18:59;;;;;;;3.60;1.92;;;10.30;99.90;;;;;;4982034;28;20124;-78
2023/11/13 14:21:28;;;;;;;3.55;1.73;;;10.30;99.90;;;;;;4986912;28;20898;-78
2023/11/13 14:23:56;;;;;;;7.30;2.00;;;10.30;99.90;;;;;;5015737;28;20018;-79
2023/11/13 14:26:24;;;;;;;7.70;2.20;;;10.30;99.90;;;;;;4986470;28;20117;-77
2023/11/13 14:28:50;;;;;;;5.38;1.73;;;10.30;99.90;;;;;;4989555;28;20340;-78
2023/11/13 14:31:16;;;;;;;3.10;1.85;;;10.30;99.90;;;;;;4985897;28;20055;-77
2023/11/13 14:33:42;;;;;;;2.67;1.92;;;10.30;99.90;;;;;;4980121;28;20054;-78
2023/11/13 14:36:08;;;;;;;5.78;1.60;;;10.30;99.90;;;;;;4987679;28;20541;-78
2023/11/13 14:38:35;;;;;;;3.80;1.63;;;10.30;99.90;;;;;;4983373;28;20019;-78
2023/11/13 14:41:03;;;;;;;2.63;1.70;;;10.30;99.90;;;;;;4984278;28;20105;-78
2023/11/13 14:43:29;;;;;;;2.75;2.08;;;10.30;99.90;;;;;;4993223;28;20022;-77
2023/11/13 14:45:56;;;;;;;2.92;1.50;;;10.30;99.90;;;;;;4998096;28;20023;-79
2023/11/13 14:48:22;;;;;;;5.65;2.03;;;10.30;99.90;;;;;;4990982;28;20025;-78
2023/11/13 14:50:48;;;;;;;2.88;1.38;;;10.30;99.90;;;;;;4993040;28;20026;-74
2023/11/13 14:53:16;;;;;;;1.90;1.40;;;10.30;99.90;;;;;;4996090;28;20049;-78
2023/11/13 14:55:45;;;;;;;5.85;1.70;;;10.30;99.90;;;;;;5000899;28;20037;-76
2023/11/13 14:58:13;;;;;;;4.82;1.52;;;10.30;99.90;;;;;;4992490;28;20098;-77
2023/11/13 15:00:39;;;;;;;3.28;1.70;;;10.30;99.90;;;;;;5005104;28;20119;-77
2023/11/13 15:03:05;;;;;;;4.25;1.90;;;10.30;99.90;;;;;;4985395;28;20495;-78
2023/11/13 15:05:31;;;;;;;4.40;1.95;;;10.40;99.90;;;;;;4993505;28;20069;-78
2023/11/13 15:07:57;;;;;;;3.70;1.60;;;10.30;99.90;;;;;;4997740;28;20026;-79
2023/11/13 15:10:22;;;;;;;4.18;1.65;;;10.40;99.90;;;;;;5003846;28;20392;-78
2023/11/13 15:12:48;;;;;;;6.13;1.75;;;10.40;99.90;;;;;;5002264;28;20411;-78
2023/11/13 15:15:16;;;;;;;1.80;1.52;;;10.30;99.90;;;;;;5008411;28;20428;-78
2023/11/13 15:17:43;;;;;;;1.88;1.52;;;10.30;99.90;;;;;;4995494;28;20386;-78
2023/11/13 15:20:14;;;;;;;4.03;1.42;;;10.40;99.90;;;;;;5000220;28;20022;-79
2023/11/13 15:22:48;;;;;;;2.20;1.58;;;10.30;99.90;;;;;;5003140;28;20014;-78
2023/11/13 15:25:15;;;;;;;2.40;1.35;;;10.40;99.90;;;;;;4999780;28;20054;-79
2023/11/13 15:27:42;;;;;;;3.58;1.60;;;10.40;99.90;;;;;;4994899;28;20022;-78
2023/11/13 15:30:11;;;;;;;3.67;1.50;;;10.40;99.90;;;;;;4998990;28;20030;-78
2023/11/13 15:32:38;;;;;;;2.70;1.73;;;10.40;99.90;;;;;;4987189;28;20066;-78
2023/11/13 15:35:05;;;;;;;1.95;1.58;;;10.40;99.90;;;;;;5003644;28;20045;-79
2023/11/13 15:37:31;;;;;;;2.90;1.40;;;10.40;99.90;;;;;;4986805;28;20053;-78
2023/11/13 15:39:57;;;;;;;2.30;1.30;;;10.40;99.90;;;;;;4991355;28;20026;-78
2023/11/13 15:42:23;;;;;;;1.23;1.13;;;10.40;99.90;;;;;;4999103;28;20026;-78
2023/11/13 15:44:48;;;;;;;4.15;1.30;;;10.40;99.90;;;;;;5004073;28;20010;-79
2023/11/13 15:47:14;;;;;;;5.07;1.77;;;10.40;99.90;;;;;;5003027;28;20379;-79
2023/11/13 15:49:40;;;;;;;4.20;1.65;;;10.40;99.90;;;;;;4991074;28;20019;-78
2023/11/13 15:52:06;;;;;;;4.35;1.40;;;10.40;99.90;;;;;;4989992;28;20011;-79
2023/11/13 15:54:35;;;;;;;1.77;1.20;;;10.40;99.90;;;;;;5000567;28;20022;-79
2023/11/13 15:57:01;;;;;;;2.65;1.30;;;10.40;99.90;;;;;;5003536;28;20068;-78
2023/11/13 15:59:27;;;;;;;3.15;1.33;;;10.40;99.90;;;;;;5002614;28;20017;-78
2023/11/13 16:01:52;;;;;;;3.60;1.60;;;10.40;99.90;;;;;;4988396;28;20395;-78
2023/11/13 16:04:18;;;;;;;5.18;1.98;;;10.40;99.90;;;;;;4999957;28;20030;-77
2023/11/13 16:06:43;;;;;;;1.65;1.45;;;10.40;99.90;;;;;;4999527;28;20029;-78
2023/11/13 16:09:15;;;;;;;3.55;1.48;;;10.40;99.90;;;;;;5019785;28;20108;-79
2023/11/13 16:11:41;;;;;;;4.25;1.67;;;10.40;99.90;;;;;;4995838;28;20025;-78
2023/11/13 16:14:07;;;;;;;2.78;1.33;;;10.40;99.90;;;;;;4995521;28;20070;-79
2023/11/13 16:16:34;;;;;;;2.63;1.30;;;10.40;99.90;;;;;;4996690;28;20029;-78
2023/11/13 16:19:00;;;;;;;3.63;1.17;;;10.40;99.90;;;;;;5002217;28;20483;-78
2023/11/13 16:21:26;;;;;;;1.95;1.42;;;10.40;99.90;;;;;;5003370;28;20027;-79
2023/11/13 16:23:52;;;;;;;2.17;1.65;;;10.40;99.90;;;;;;4990168;28;20437;-78
2023/11/13 16:26:18;;;;;;;1.30;1.20;;;10.40;99.90;;;;;;4994604;28;20555;-78
2023/11/13 16:28:43;;;;;;;2.25;1.45;;;10.40;99.90;;;;;;4996651;28;20018;-78
2023/11/13 16:31:09;;;;;;;3.28;1.92;;;10.40;99.90;;;;;;4997394;28;20057;-77
2023/11/13 16:33:35;;;;;;;3.35;2.25;;;10.40;99.90;;;;;;5002550;28;20072;-77
2023/11/13 16:36:01;;;;;;;3.75;1.48;;;10.40;99.90;;;;;;4993143;28;20023;-78
2023/11/13 16:38:27;;;;;;;2.33;1.40;;;10.40;99.90;;;;;;4993035;28;20022;-80
2023/11/13 16:40:53;;;;;;;2.83;1.40;;;10.40;99.90;;;;;;4995844;28;20080;-79
2023/11/13 16:43:23;;;;;;;2.90;1.50;;;10.40;99.90;;;;;;5001646;28;20438;-78
2023/11/13 16:45:50;;;;;;;3.58;1.30;;;10.40;99.90;;;;;;5004802;28;20018;-78
2023/11/13 16:48:15;;;;;;;4.15;1.52;;;10.40;99.90;;;;;;4990477;28;20498;-78
2023/11/13 16:50:41;;;;;;;2.92;1.55;;;10.40;99.90;;;;;;4997592;28;20031;-78